Time;durP1;ratioP1;P1;durP2;ratioP2;P2;SDS_P1;SDS_P2;PMS_P1;PMS_P2;Temp;Humidity;BMP_temperature;BMP_pressure;BME280_temperature;BME280_humidity;BME280_pressure;Samples;Min_cycle;Max_cycle;Signal;HPM_P1;HPM_P2
2023/12/24 00:02:22;;;;;;;10.57;4.20;;;;;;;10.01;100.00;100778.06;5071980;28;20057;-83
2023/12/24 00:04:49;;;;;;;9.15;3.80;;;;;;;9.99;100.00;100777.16;5072729;28;20477;-83
2023/12/24 00:07:15;;;;;;;9.40;4.10;;;;;;;10.02;100.00;100782.50;5054821;28;20035;-82
2023/12/24 00:09:41;;;;;;;11.98;3.85;;;;;;;10.02;100.00;100768.38;5072813;28;20107;-82
2023/12/24 00:12:06;;;;;;;8.23;3.70;;;;;;;10.07;100.00;100773.75;5072717;28;20039;-82
2023/12/24 00:14:32;;;;;;;11.45;3.83;;;;;;;9.97;100.00;100773.59;5072649;28;20111;-82
2023/12/24 00:16:57;;;;;;;8.15;3.50;;;;;;;9.93;100.00;100782.34;5072535;28;20468;-82
2023/12/24 00:19:22;;;;;;;8.60;3.55;;;;;;;10.10;100.00;100803.69;5038251;28;20044;-82
2023/12/24 00:21:49;;;;;;;6.38;3.47;;;;;;;9.91;100.00;100781.47;5072327;28;20093;-82
2023/12/24 00:24:14;;;;;;;8.65;3.63;;;;;;;10.07;100.00;100803.66;5072640;28;20103;-82
2023/12/24 00:26:40;;;;;;;10.00;3.60;;;;;;;10.04;100.00;100787.78;5076099;28;20111;-82
2023/12/24 00:29:05;;;;;;;7.90;3.47;;;;;;;9.93;100.00;100779.72;5075848;28;20071;-83
2023/12/24 00:31:30;;;;;;;7.50;3.40;;;;;;;9.98;100.00;100764.84;5058337;28;20493;-82
2023/12/24 00:33:56;;;;;;;6.72;3.35;;;;;;;10.02;100.00;100765.75;5075942;28;20461;-83
2023/12/24 00:36:21;;;;;;;7.95;3.03;;;;;;;10.13;100.00;100779.97;5075984;28;20024;-83
2023/12/24 00:38:49;;;;;;;8.55;3.28;;;;;;;10.10;100.00;100774.63;5075961;28;20028;-83
2023/12/24 00:41:16;;;;;;;5.25;3.03;;;;;;;10.14;100.00;100771.16;5058324;28;20111;-82
2023/12/24 00:43:42;;;;;;;5.88;2.80;;;;;;;10.10;100.00;100761.44;5075726;28;20464;-83
2023/12/24 00:46:12;;;;;;;6.90;2.97;;;;;;;10.11;100.00;100747.41;5075697;28;20032;-82
2023/12/24 00:48:38;;;;;;;5.13;2.70;;;;;;;10.06;100.00;100721.78;5075713;28;20037;-82
2023/12/24 00:51:04;;;;;;;7.28;2.72;;;;;;;10.15;99.98;100735.09;5075757;28;20401;-82
2023/12/24 00:53:29;;;;;;;6.80;2.72;;;;;;;10.16;99.22;100718.41;5075444;28;20036;-82
2023/12/24 00:55:54;;;;;;;4.90;2.40;;;;;;;10.11;99.97;100715.72;5075234;28;20039;-82
2023/12/24 00:58:20;;;;;;;7.75;2.75;;;;;;;10.11;99.77;100701.63;5075379;28;20483;-82
2023/12/24 01:00:46;;;;;;;6.45;2.53;;;;;;;10.04;99.75;100680.44;5075477;28;20035;-82
2023/12/24 01:03:12;;;;;;;6.45;2.22;;;;;;;10.07;99.40;100676.06;5075762;28;20045;-82
2023/12/24 01:05:38;;;;;;;5.43;2.22;;;;;;;10.06;99.58;100669.88;5057405;28;20497;-83
2023/12/24 01:08:03;;;;;;;6.32;2.40;;;;;;;10.07;99.25;100657.59;5075276;28;20033;-82
2023/12/24 01:10:29;;;;;;;5.90;2.47;;;;;;;10.11;99.19;100640.91;5075021;28;20119;-82
2023/12/24 01:12:54;;;;;;;10.02;2.58;;;;;;;9.98;99.80;100624.94;5075119;28;20139;-82
2023/12/24 01:15:20;;;;;;;7.47;2.40;;;;;;;10.04;100.00;100643.47;5075198;28;20056;-82
2023/12/24 01:17:45;;;;;;;8.57;2.70;;;;;;;10.04;100.00;100648.75;5075062;28;20036;-82
2023/12/24 01:20:15;;;;;;;10.55;2.60;;;;;;;10.06;99.93;100645.22;5057323;28;20039;-84
2023/12/24 01:22:41;;;;;;;8.07;2.70;;;;;;;10.08;99.88;100636.47;5074723;28;20043;-83
2023/12/24 01:25:07;;;;;;;8.55;2.45;;;;;;;10.10;100.00;100647.03;5057061;28;20033;-82
2023/12/24 01:27:32;;;;;;;7.25;2.40;;;;;;;10.09;99.80;100646.16;5075099;28;20117;-82
2023/12/24 01:29:57;;;;;;;5.93;2.20;;;;;;;10.11;100.00;100649.72;5075183;28;20115;-82
2023/12/24 01:32:23;;;;;;;7.82;2.35;;;;;;;10.08;100.00;100644.38;5056671;28;20473;-82
2023/12/24 01:34:48;;;;;;;6.00;2.25;;;;;;;10.15;100.00;100654.16;5040083;28;20090;-82
2023/12/24 01:37:14;;;;;;;5.93;2.17;;;;;;;10.15;100.00;100653.22;5074462;28;20033;-82
2023/12/24 01:39:39;;;;;;;8.13;2.47;;;;;;;10.12;100.00;100646.19;5074452;28;20024;-82
2023/12/24 01:42:04;;;;;;;5.65;2.28;;;;;;;10.17;100.00;100647.09;5074553;28;20483;-82
2023/12/24 01:44:30;;;;;;;10.82;2.40;;;;;;;10.19;100.00;100657.66;5074635;28;20037;-83
2023/12/24 01:46:56;;;;;;;5.93;2.25;;;;;;;10.05;100.00;100639.06;5074579;28;20074;-82
2023/12/24 01:49:21;;;;;;;5.57;2.20;;;;;;;10.18;100.00;100656.78;5074684;28;20032;-82
2023/12/24 01:51:47;;;;;;;10.07;2.28;;;;;;;10.13;100.00;100650.59;5074151;28;20041;-82
2023/12/24 01:54:13;;;;;;;9.35;2.65;;;;;;;10.08;100.00;100641.75;5074334;28;20229;-83
2023/12/24 01:56:39;;;;;;;6.57;2.22;;;;;;;10.18;100.00;100655.91;5074024;28;20488;-82
2023/12/24 01:59:07;;;;;;;8.48;2.15;;;;;;;10.17;100.00;100667.34;5074201;28;20039;-83
2023/12/24 02:01:33;;;;;;;5.72;2.20;;;;;;;10.08;100.00;100641.75;5056349;28;20032;-83
2023/12/24 02:03:59;;;;;;;7.70;3.15;;;;;;;10.14;100.00;100652.34;5055808;28;20052;-83
2023/12/24 02:06:25;;;;;;;8.18;2.42;;;;;;;10.11;100.00;100655.00;5074420;28;20036;-83
2023/12/24 02:08:51;;;;;;;7.93;2.55;;;;;;;10.01;100.00;100638.16;5074540;28;20055;-82
2023/12/24 02:11:16;;;;;;;7.93;2.38;;;;;;;10.07;100.00;100649.66;5056560;28;20040;-82
2023/12/24 02:13:43;;;;;;;8.35;2.70;;;;;;;9.93;100.00;100636.31;5056185;28;20439;-83
2023/12/24 02:16:11;;;;;;;6.85;2.40;;;;;;;10.05;100.00;100649.63;5073897;28;20039;-82
2023/12/24 02:18:38;;;;;;;9.20;2.50;;;;;;;10.03;100.00;100646.97;5074108;28;20423;-82
2023/12/24 02:21:04;;;;;;;6.38;2.50;;;;;;;9.96;100.00;100625.78;5073901;28;20048;-82
2023/12/24 02:23:30;;;;;;;8.80;2.63;;;;;;;10.02;100.00;100644.31;5074336;28;20099;-82
2023/12/24 02:26:00;;;;;;;5.97;2.25;;;;;;;10.02;100.00;100641.66;5074004;28;20111;-82
2023/12/24 02:28:27;;;;;;;5.68;2.40;;;;;;;9.96;100.00;100625.78;5074049;28;20099;-83
2023/12/24 02:30:59;;;;;;;6.20;2.60;;;;;;;9.92;100.00;100627.50;5073897;28;20028;-83
2023/12/24 02:33:30;;;;;;;6.88;2.30;;;;;;;9.97;100.00;100625.78;5055983;28;20028;-83
2023/12/24 02:35:58;;;;;;;8.82;2.45;;;;;;;9.93;100.00;100624.00;5074126;28;20035;-82
2023/12/24 02:38:23;;;;;;;4.28;2.30;;;;;;;9.95;100.00;100629.31;5055769;28;20039;-83
2023/12/24 02:40:49;;;;;;;6.35;2.45;;;;;;;9.92;100.00;100616.06;5055943;28;20032;-83
2023/12/24 02:43:14;;;;;;;6.40;2.40;;;;;;;9.89;100.00;100606.38;5055756;28;20032;-84
2023/12/24 02:45:40;;;;;;;6.97;2.30;;;;;;;9.85;100.00;100601.94;5073802;28;20034;-84
2023/12/24 02:48:06;;;;;;;9.50;2.70;;;;;;;9.85;100.00;100595.75;5074110;28;20025;-84
2023/12/24 02:50:47;;;;;;;8.93;2.30;;;;;;;9.72;100.00;100576.28;5074056;28;20373;-84
2023/12/24 03:00:00;;;;;;;6.25;2.58;;;;;;;9.70;100.00;100567.47;5072900;28;20055;-85
2023/12/24 03:02:26;;;;;;;6.85;2.50;;;;;;;9.69;100.00;100571.00;5073201;28;20464;-85
2023/12/24 03:04:51;;;;;;;5.25;2.60;;;;;;;9.78;100.00;100594.81;5055494;28;20037;-85
2023/12/24 03:07:16;;;;;;;8.05;2.90;;;;;;;9.69;100.00;100579.78;5055455;28;20039;-86
2023/12/24 03:09:42;;;;;;;6.78;2.95;;;;;;;9.75;100.00;100589.50;5038840;28;20040;-85
2023/12/24 03:12:08;;;;;;;9.18;3.78;;;;;;;9.66;100.00;100565.69;5055515;28;20036;-85
2023/12/24 03:14:33;;;;;;;7.43;2.97;;;;;;;9.62;100.00;100556.84;5073315;28;20033;-84
2023/12/24 03:16:58;;;;;;;6.97;3.25;;;;;;;9.61;100.00;100560.34;5056287;28;20091;-84
2023/12/24 03:19:24;;;;;;;5.65;3.00;;;;;;;9.66;100.00;100563.03;5055802;28;20044;-85
2023/12/24 03:21:49;;;;;;;7.43;3.10;;;;;;;9.72;100.00;100561.38;5073445;28;20036;-85
2023/12/24 03:24:14;;;;;;;5.38;2.83;;;;;;;9.66;100.00;100549.84;5038417;28;20468;-86
2023/12/24 03:26:40;;;;;;;8.10;3.03;;;;;;;9.69;100.00;100550.78;5055524;28;20036;-87
2023/12/24 03:29:05;;;;;;;7.25;2.78;;;;;;;9.70;100.00;100547.25;5073758;28;20032;-85
2023/12/24 03:31:31;;;;;;;3.60;2.40;;;;;;;9.69;100.00;100545.50;5073323;28;20033;-84
2023/12/24 03:33:57;;;;;;;10.15;3.42;;;;;;;9.66;100.00;100544.56;5055506;28;20388;-84
2023/12/24 03:36:22;;;;;;;3.35;2.00;;;;;;;9.63;100.00;100539.25;5055458;28;20354;-84
2023/12/24 03:38:48;;;;;;;2.67;1.80;;;;;;;9.60;100.00;100520.78;5055074;28;20029;-86
2023/12/24 03:41:13;;;;;;;2.97;1.90;;;;;;;9.71;100.00;100521.75;5054698;28;20040;-85
2023/12/24 03:43:38;;;;;;;3.78;1.92;;;;;;;9.50;100.00;100491.66;5072821;28;20502;-85
2023/12/24 03:46:04;;;;;;;1.67;1.58;;;;;;;9.74;100.00;100535.84;5072514;28;20040;-88
2023/12/24 03:48:35;;;;;;;4.18;1.80;;;;;;;9.76;100.00;100526.22;5072836;28;20079;-86
2023/12/24 03:51:01;;;;;;;4.32;1.80;;;;;;;9.77;100.00;100520.06;5073006;28;20056;-85
2023/12/24 03:53:26;;;;;;;1.90;1.70;;;;;;;9.76;100.00;100506.84;5072554;28;20174;-86
2023/12/24 03:55:51;;;;;;;1.55;1.42;;;;;;;9.80;100.00;100506.00;5072682;28;20432;-86
2023/12/24 03:58:17;;;;;;;1.60;1.50;;;;;;;9.75;100.00;100495.41;5054839;28;20031;-87
2023/12/24 04:00:42;;;;;;;2.47;1.50;;;;;;;9.76;100.00;100501.56;5040083;28;20033;-86
2023/12/24 04:03:07;;;;;;;1.38;1.20;;;;;;;9.82;100.00;100512.19;5058155;28;20087;-86
2023/12/24 04:05:33;;;;;;;1.85;1.10;;;;;;;9.82;100.00;100513.94;5058415;28;20037;-86
2023/12/24 04:07:58;;;;;;;2.03;1.25;;;;;;;9.84;100.00;100514.81;5058326;28;20056;-86
2023/12/24 04:10:24;;;;;;;1.20;1.10;;;;;;;9.81;100.00;100507.78;5076462;28;20033;-86
2023/12/24 04:12:49;;;;;;;1.17;1.10;;;;;;;9.68;100.00;100482.19;5058084;28;20032;-86
2023/12/24 04:15:14;;;;;;;1.00;1.00;;;;;;;9.74;100.00;100488.38;5058339;28;20037;-86
2023/12/24 04:17:40;;;;;;;1.20;1.10;;;;;;;9.61;100.00;100469.78;5076112;28;20107;-86
2023/12/24 04:20:06;;;;;;;1.20;1.15;;;;;;;9.82;100.00;100492.84;5058241;28;20032;-85
2023/12/24 04:22:32;;;;;;;0.95;0.95;;;;;;;9.76;100.00;100481.38;5075944;28;20033;-86
2023/12/24 04:24:58;;;;;;;1.23;1.17;;;;;;;9.84;100.00;100499.88;5041381;28;20032;-85
2023/12/24 04:27:24;;;;;;;1.40;1.30;;;;;;;9.86;100.00;100499.91;5041295;28;20032;-86
2023/12/24 04:29:50;;;;;;;2.30;1.40;;;;;;;9.78;100.00;100490.16;5075967;28;20033;-86
2023/12/24 04:32:16;;;;;;;1.60;1.30;;;;;;;9.88;100.00;100495.50;5075754;28;20037;-86
2023/12/24 04:34:42;;;;;;;1.42;1.33;;;;;;;9.85;100.00;100492.84;5058269;28;20464;-86
2023/12/24 04:37:08;;;;;;;1.17;1.17;;;;;;;9.90;100.00;100494.66;5075914;28;20064;-86
2023/12/24 04:39:33;;;;;;;2.85;1.40;;;;;;;9.86;100.00;100495.50;5057757;28;20374;-86
2023/12/24 04:41:58;;;;;;;1.00;1.00;;;;;;;9.87;100.00;100483.19;5075471;28;20068;-87
2023/12/24 04:44:24;;;;;;;1.35;1.25;;;;;;;9.83;100.00;100484.03;5075755;28;20032;-87
2023/12/24 04:46:50;;;;;;;1.58;1.20;;;;;;;9.91;100.00;100492.91;5076030;28;20037;-86
2023/12/24 04:49:15;;;;;;;2.33;1.50;;;;;;;9.87;100.00;100486.72;5075676;28;20028;-85
2023/12/24 04:51:43;;;;;;;1.05;1.05;;;;;;;9.77;100.00;100469.06;5075436;28;20029;-86
2023/12/24 04:54:08;;;;;;;1.30;1.20;;;;;;;9.86;100.00;100484.06;5075283;28;20028;-86
2023/12/24 04:56:34;;;;;;;1.83;1.20;;;;;;;9.91;100.00;100493.78;5057385;28;20101;-85
2023/12/24 04:59:00;;;;;;;1.05;1.02;;;;;;;9.76;100.00;100461.97;5057350;28;20032;-86
2023/12/24 05:01:25;;;;;;;2.60;1.20;;;;;;;9.90;100.00;100491.16;5075255;28;20043;-85
2023/12/24 05:03:51;;;;;;;1.25;1.23;;;;;;;9.75;100.00;100458.47;5074827;28;20047;-85
2023/12/24 05:06:16;;;;;;;1.20;1.20;;;;;;;9.90;100.00;100483.22;5057241;28;20073;-85
2023/12/24 05:08:42;;;;;;;1.30;1.20;;;;;;;9.92;100.00;100476.19;5057313;28;20036;-85
2023/12/24 05:11:08;;;;;;;1.75;1.33;;;;;;;9.82;100.00;100458.53;5074745;28;20496;-86
2023/12/24 05:13:37;;;;;;;1.63;1.15;;;;;;;9.73;100.00;100438.25;5075179;28;20118;-85
2023/12/24 05:16:03;;;;;;;1.27;1.27;;;;;;;9.80;100.00;100471.69;5074804;28;20043;-85
2023/12/24 05:18:30;;;;;;;1.50;1.40;;;;;;;9.91;100.00;100484.97;5075331;28;20043;-85
2023/12/24 05:20:55;;;;;;;1.40;1.30;;;;;;;9.92;100.00;100486.75;5074709;28;20033;-85
2023/12/24 05:23:21;;;;;;;1.33;1.25;;;;;;;9.87;100.00;100462.97;5074797;28;20035;-85
2023/12/24 05:25:47;;;;;;;1.40;1.30;;;;;;;9.93;100.00;100476.19;5056880;28;20072;-87
2023/12/24 05:28:13;;;;;;;1.17;1.17;;;;;;;9.95;100.00;100469.19;5074884;28;20040;-86
2023/12/24 05:30:38;;;;;;;1.30;1.20;;;;;;;9.95;100.00;100469.19;5075249;28;20043;-86
2023/12/24 05:33:03;;;;;;;1.30;1.20;;;;;;;9.94;100.00;100477.97;5040062;28;20048;-86
2023/12/24 05:35:29;;;;;;;1.40;1.30;;;;;;;9.93;100.00;100478.81;5074669;28;20029;-86
2023/12/24 05:37:54;;;;;;;1.40;1.30;;;;;;;9.92;100.00;100471.78;5074759;28;20024;-86
2023/12/24 05:40:20;;;;;;;2.00;1.38;;;;;;;9.91;100.00;100475.31;5074558;28;20060;-86
2023/12/24 05:42:45;;;;;;;1.65;1.40;;;;;;;9.90;100.00;100462.13;5074419;28;20427;-86
2023/12/24 05:45:11;;;;;;;1.38;1.27;;;;;;;9.83;100.00;100447.97;5074406;28;20029;-85
2023/12/24 05:47:37;;;;;;;1.48;1.38;;;;;;;9.93;100.00;100462.13;5074559;28;20025;-85
2023/12/24 05:50:09;;;;;;;1.50;1.40;;;;;;;9.93;100.00;100464.75;5056756;28;20119;-86
2023/12/24 05:52:35;;;;;;;1.55;1.45;;;;;;;9.95;100.00;100478.84;5074256;28;20518;-86
2023/12/24 05:55:01;;;;;;;1.50;1.40;;;;;;;9.97;100.00;100469.19;5056538;28;20128;-86
2023/12/24 05:57:26;;;;;;;1.40;1.30;;;;;;;9.98;100.00;100473.63;5074269;28;20119;-85
2023/12/24 05:59:52;;;;;;;1.40;1.30;;;;;;;9.98;100.00;100468.34;5056366;28;20403;-86
2023/12/24 06:02:18;;;;;;;1.40;1.30;;;;;;;9.98;100.00;100461.28;5073950;28;20040;-87
2023/12/24 06:04:43;;;;;;;1.60;1.50;;;;;;;9.97;100.00;100453.34;5074284;28;20031;-86
2023/12/24 06:07:09;;;;;;;1.50;1.40;;;;;;;10.01;100.00;100461.28;5074198;28;20044;-85
2023/12/24 06:09:34;;;;;;;1.88;1.50;;;;;;;9.98;100.00;100457.78;5056216;28;20033;-86
2023/12/24 06:12:00;;;;;;;1.55;1.45;;;;;;;9.95;100.00;100458.63;5056047;28;20039;-85
2023/12/24 06:14:25;;;;;;;1.55;1.45;;;;;;;9.92;100.00;100450.69;5055870;28;20032;-86
2023/12/24 06:16:50;;;;;;;1.63;1.40;;;;;;;10.01;100.00;100468.34;5056108;28;20036;-85
2023/12/24 06:19:16;;;;;;;1.55;1.45;;;;;;;10.06;100.00;100460.44;5073558;28;20487;-88
2023/12/24 06:21:41;;;;;;;1.70;1.60;;;;;;;10.08;100.00;100451.66;5073433;28;20119;-86
2023/12/24 06:24:07;;;;;;;2.10;1.90;;;;;;;10.07;100.00;100455.19;5073208;28;20032;-86
2023/12/24 06:26:33;;;;;;;2.00;1.70;;;;;;;10.08;100.00;100453.44;5073950;28;20373;-86
2023/12/24 06:28:59;;;;;;;2.00;1.60;;;;;;;9.93;100.00;100431.31;5055795;28;20488;-87
2023/12/24 06:31:24;;;;;;;1.60;1.50;;;;;;;10.11;100.00;100454.34;5073760;28;20040;-86
2023/12/24 06:33:50;;;;;;;1.70;1.60;;;;;;;10.12;100.00;100457.84;5073571;28;20121;-86
2023/12/24 06:36:16;;;;;;;1.65;1.55;;;;;;;9.96;100.00;100425.19;5073414;28;20037;-86
2023/12/24 06:38:41;;;;;;;1.63;1.52;;;;;;;10.09;100.00;100434.94;5073588;28;20115;-87
2023/12/24 06:41:07;;;;;;;1.67;1.58;;;;;;;9.86;100.00;100391.72;5073430;28;20032;-86
2023/12/24 06:43:32;;;;;;;1.70;1.60;;;;;;;10.16;100.00;100444.69;5073494;28;20377;-86
2023/12/24 06:45:58;;;;;;;2.35;1.80;;;;;;;10.18;100.00;100452.59;5073243;28;20397;-86
2023/12/24 06:48:23;;;;;;;1.65;1.55;;;;;;;10.10;100.00;100435.81;5055600;28;20035;-86
2023/12/24 06:50:49;;;;;;;2.00;1.60;;;;;;;10.16;100.00;100451.72;5055512;28;20129;-86
2023/12/24 06:53:14;;;;;;;1.40;1.30;;;;;;;10.13;100.00;100434.09;5072941;28;20425;-86
2023/12/24 06:55:40;;;;;;;1.88;1.60;;;;;;;10.21;100.00;100450.88;5055411;28;20464;-85
2023/12/24 06:58:06;;;;;;;1.60;1.50;;;;;;;10.11;100.00;100422.66;5055531;28;20040;-86
2023/12/24 07:00:32;;;;;;;1.75;1.65;;;;;;;10.21;100.00;100440.31;5073253;28;20033;-85
2023/12/24 07:02:57;;;;;;;2.17;1.50;;;;;;;10.21;100.00;100439.44;5055241;28;20067;-85
2023/12/24 07:05:23;;;;;;;1.58;1.48;;;;;;;10.19;100.00;100422.69;5073552;28;20130;-85
2023/12/24 07:07:48;;;;;;;1.63;1.52;;;;;;;10.20;100.00;100432.38;5055501;28;20115;-85
2023/12/24 07:10:14;;;;;;;1.73;1.50;;;;;;;10.23;100.00;100438.53;5055658;28;20477;-85
2023/12/24 07:12:39;;;;;;;1.45;1.35;;;;;;;10.11;100.00;100406.81;5073485;28;20044;-85
2023/12/24 07:15:06;;;;;;;1.65;1.50;;;;;;;10.16;100.00;100420.03;5038879;28;20039;-85
2023/12/24 07:17:32;;;;;;;2.65;1.65;;;;;;;10.22;100.00;100434.16;5073321;28;20542;-85
2023/12/24 07:19:57;;;;;;;3.30;1.90;;;;;;;10.26;100.00;100441.25;5073388;28;20044;-85
2023/12/24 07:22:23;;;;;;;3.75;1.98;;;;;;;10.27;100.00;100442.13;5073112;28;20056;-85
2023/12/24 07:24:48;;;;;;;2.63;2.10;;;;;;;10.28;100.00;100436.00;5073608;28;20028;-84
2023/12/24 07:27:14;;;;;;;3.08;2.20;;;;;;;10.22;100.00;100423.59;5073043;28;20540;-85
2023/12/24 07:29:43;;;;;;;2.20;2.00;;;;;;;10.27;100.00;100439.47;5073163;28;20036;-85
2023/12/24 07:32:08;;;;;;;2.45;2.13;;;;;;;10.33;100.00;100441.28;5072778;28;20059;-85
2023/12/24 07:34:33;;;;;;;2.85;1.98;;;;;;;10.31;100.00;100441.25;5075157;28;20521;-85
2023/12/24 07:36:59;;;;;;;2.90;2.10;;;;;;;10.29;100.00;100437.75;5077205;28;20524;-86
2023/12/24 07:39:25;;;;;;;2.67;1.90;;;;;;;10.18;100.00;100418.28;5042602;28;20037;-86
2023/12/24 07:41:50;;;;;;;2.20;2.00;;;;;;;10.28;100.00;100439.50;5058956;28;20492;-85
2023/12/24 07:44:16;;;;;;;2.25;1.90;;;;;;;10.31;100.00;100435.09;5077140;28;20064;-85
2023/12/24 07:46:43;;;;;;;3.05;2.00;;;;;;;10.32;100.00;100434.22;5058630;28;20477;-86
2023/12/24 07:49:09;;;;;;;4.32;2.10;;;;;;;10.34;100.00;100451.84;5058808;28;20036;-86
2023/12/24 07:51:34;;;;;;;2.67;1.92;;;;;;;10.31;100.00;100441.25;5076688;28;20043;-86
2023/12/24 07:54:00;;;;;;;3.10;2.10;;;;;;;10.37;100.00;100449.25;5058702;28;20032;-86
2023/12/24 07:56:25;;;;;;;3.95;2.22;;;;;;;10.35;100.00;100450.97;5076572;28;20089;-86
2023/12/24 07:58:50;;;;;;;2.75;1.98;;;;;;;10.28;100.00;100425.44;5076366;28;20068;-86
2023/12/24 08:01:16;;;;;;;2.72;2.00;;;;;;;10.10;100.00;100389.19;5077877;28;20510;-86
2023/12/24 08:03:41;;;;;;;1.90;1.80;;;;;;;10.38;100.00;100432.50;5075759;28;20071;-86
2023/12/24 08:06:07;;;;;;;2.60;1.83;;;;;;;10.36;100.00;100428.97;5026299;28;20043;-85
2023/12/24 08:08:32;;;;;;;1.80;1.70;;;;;;;10.40;100.00;100432.50;5058013;28;20060;-85
2023/12/24 08:10:57;;;;;;;1.80;1.70;;;;;;;10.39;100.00;100436.03;5076180;28;20456;-86
2023/12/24 08:13:23;;;;;;;1.77;1.60;;;;;;;10.29;100.00;100413.97;5058033;28;20032;-85
2023/12/24 08:15:48;;;;;;;1.70;1.60;;;;;;;10.33;100.00;100434.25;5041433;28;20024;-87
2023/12/24 08:18:14;;;;;;;1.75;1.60;;;;;;;10.28;100.00;100417.50;5057840;28;20455;-86
2023/12/24 08:20:39;;;;;;;1.52;1.42;;;;;;;10.41;100.00;100436.94;5075444;28;20033;-87
2023/12/24 08:23:07;;;;;;;1.70;1.60;;;;;;;10.32;100.00;100418.38;5075456;28;20461;-86
2023/12/24 08:25:32;;;;;;;1.58;1.40;;;;;;;10.34;100.00;100435.13;5058012;28;20024;-86
2023/12/24 08:27:59;;;;;;;2.63;1.70;;;;;;;10.45;100.00;100438.72;5075669;28;20043;-85
2023/12/24 08:30:25;;;;;;;3.33;1.60;;;;;;;10.43;100.00;100421.97;5058519;28;20381;-85
2023/12/24 08:32:51;;;;;;;1.65;1.55;;;;;;;10.44;100.00;100429.00;5075572;28;20045;-86
2023/12/24 08:35:16;;;;;;;1.95;1.70;;;;;;;10.43;100.00;100422.84;5076322;28;20029;-85
2023/12/24 08:37:42;;;;;;;1.77;1.40;;;;;;;10.47;100.00;100418.47;5057956;28;20086;-86
2023/12/24 08:40:08;;;;;;;1.83;1.60;;;;;;;10.38;100.00;100406.09;5057618;28;20499;-86
2023/12/24 08:42:33;;;;;;;1.75;1.63;;;;;;;10.50;100.00;100429.94;5075374;28;20035;-85
2023/12/24 08:44:59;;;;;;;3.60;1.50;;;;;;;10.49;100.00;100419.34;5057204;28;20033;-85
2023/12/24 08:47:24;;;;;;;1.90;1.63;;;;;;;10.49;100.00;100417.59;5058071;28;20433;-86
2023/12/24 08:49:50;;;;;;;1.70;1.58;;;;;;;10.51;100.00;100421.13;5075372;28;20052;-85
2023/12/24 08:52:15;;;;;;;2.25;1.60;;;;;;;10.51;100.00;100418.47;5056906;28;20047;-85
2023/12/24 08:54:40;;;;;;;2.13;1.70;;;;;;;10.51;100.00;100415.84;5057281;28;20127;-85
2023/12/24 08:57:07;;;;;;;1.90;1.70;;;;;;;10.46;100.00;100399.09;5056976;28;20040;-85
2023/12/24 08:59:32;;;;;;;1.73;1.63;;;;;;;10.55;100.00;100421.13;5075171;28;20094;-85
2023/12/24 09:01:58;;;;;;;2.88;1.90;;;;;;;10.56;100.00;100423.78;5039996;28;20435;-85
2023/12/24 09:04:23;;;;;;;2.08;1.83;;;;;;;10.58;100.00;100418.47;5074944;28;20045;-87
2023/12/24 09:06:49;;;;;;;2.00;1.80;;;;;;;10.58;100.00;100432.59;5074890;28;20465;-85
2023/12/24 09:09:14;;;;;;;2.00;1.80;;;;;;;10.61;100.00;100443.16;5058349;28;20033;-84
2023/12/24 09:11:40;;;;;;;1.92;1.70;;;;;;;10.65;100.00;100454.63;5057405;28;20410;-84
2023/12/24 09:14:06;;;;;;;2.40;1.98;;;;;;;10.63;100.00;100448.47;5057551;28;20059;-84
2023/12/24 09:16:31;;;;;;;2.42;2.00;;;;;;;10.58;100.00;100437.91;5074935;28;20056;-85
2023/12/24 09:18:57;;;;;;;2.05;1.85;;;;;;;10.66;100.00;100453.75;5075126;28;20036;-85
2023/12/24 09:21:22;;;;;;;2.20;2.00;;;;;;;10.67;100.00;100451.13;5075309;28;20029;-85
2023/12/24 09:23:47;;;;;;;2.55;2.20;;;;;;;10.59;100.00;100433.50;5074464;28;20047;-86
2023/12/24 09:26:13;;;;;;;2.20;2.00;;;;;;;10.70;100.00;100431.75;5056590;28;20508;-85
2023/12/24 09:28:38;;;;;;;2.20;1.83;;;;;;;10.76;100.00;100432.66;5074583;28;20086;-85
2023/12/24 09:31:04;;;;;;;2.63;2.20;;;;;;;10.69;100.00;100416.78;5074144;28;20033;-84
2023/12/24 09:33:29;;;;;;;2.58;2.20;;;;;;;10.78;100.00;100424.72;5074658;28;20494;-85
2023/12/24 09:35:54;;;;;;;2.72;2.20;;;;;;;10.78;100.00;100420.31;5056925;28;20032;-85
2023/12/24 09:38:20;;;;;;;2.22;1.73;;;;;;;10.77;100.00;100409.75;5040045;28;20024;-85
2023/12/24 09:40:46;;;;;;;2.28;1.88;;;;;;;10.78;100.00;100408.88;5074403;28;20358;-85
2023/12/24 09:43:11;;;;;;;3.28;1.80;;;;;;;10.81;100.00;100416.81;5074332;28;20064;-87
2023/12/24 09:45:37;;;;;;;2.15;1.90;;;;;;;10.82;100.00;100422.97;5074774;28;20063;-86
2023/12/24 09:48:03;;;;;;;1.90;1.75;;;;;;;10.85;100.00;100423.88;5075049;28;20037;-85
2023/12/24 09:50:28;;;;;;;4.20;1.90;;;;;;;10.80;100.00;100420.34;5074337;28;20372;-85
2023/12/24 09:52:54;;;;;;;2.13;1.90;;;;;;;10.83;100.00;100430.91;5057151;28;20093;-85
2023/12/24 09:55:22;;;;;;;2.92;2.13;;;;;;;10.85;100.00;100434.44;5074455;28;20377;-85
2023/12/24 09:57:47;;;;;;;2.53;2.00;;;;;;;10.83;100.00;100422.97;5074067;28;20059;-86
2023/12/24 10:00:16;;;;;;;4.15;2.17;;;;;;;10.80;100.00;100412.41;5056504;28;20074;-86
2023/12/24 10:02:41;;;;;;;4.55;2.50;;;;;;;10.88;100.00;100415.97;5074055;28;20063;-84
2023/12/24 10:05:07;;;;;;;4.72;2.60;;;;;;;10.82;100.00;100429.16;5055930;28;20037;-84
2023/12/24 10:07:40;;;;;;;4.28;3.10;;;;;;;10.91;100.00;100420.38;5073913;28;20376;-85
2023/12/24 10:10:09;;;;;;;6.75;4.20;;;;;;;10.89;100.00;100423.00;5074525;28;20043;-86
2023/12/24 10:12:35;;;;;;;6.50;4.43;;;;;;;10.93;100.00;100405.41;5056202;28;20040;-85
2023/12/24 10:15:01;;;;;;;7.90;5.75;;;;;;;11.00;100.00;100420.38;5073955;28;20035;-85
2023/12/24 10:17:34;;;;;;;8.35;6.05;;;;;;;10.89;100.00;100404.50;5039202;28;20078;-85
2023/12/24 10:20:03;;;;;;;11.27;7.20;;;;;;;10.93;100.00;100405.41;5074051;28;20162;-85
2023/12/24 10:22:28;;;;;;;11.25;7.60;;;;;;;10.94;100.00;100413.31;5073297;28;20051;-84
2023/12/24 10:25:01;;;;;;;9.93;7.20;;;;;;;11.06;100.00;100425.69;5055691;28;20477;-85
2023/12/24 10:27:27;;;;;;;12.38;7.68;;;;;;;11.09;100.00;100432.72;5073524;28;20149;-85
2023/12/24 10:29:52;;;;;;;13.57;8.65;;;;;;;10.98;100.00;100401.88;5073374;28;20043;-86
2023/12/24 10:32:24;;;;;;;18.63;9.55;;;;;;;11.14;100.00;100420.44;5073552;28;20045;-86
2023/12/24 10:34:59;;;;;;;15.65;9.57;;;;;;;10.90;100.00;100360.44;5055585;28;20024;-86
2023/12/24 10:37:29;;;;;;;14.45;9.25;;;;;;;11.19;100.00;100418.66;5055579;28;20070;-88
2023/12/24 10:40:13;;;;;;;15.50;8.80;;;;;;;11.18;100.00;100399.28;5055801;28;20032;-86
2023/12/24 10:42:39;;;;;;;12.88;8.45;;;;;;;11.11;100.00;100388.69;5055463;28;20384;-85
2023/12/24 10:45:05;;;;;;;17.17;9.10;;;;;;;11.18;100.00;100404.56;5072974;28;20510;-85
2023/12/24 10:47:31;;;;;;;14.07;8.32;;;;;;;11.16;100.00;100379.88;5055271;28;20515;-84
2023/12/24 10:49:56;;;;;;;16.63;8.35;;;;;;;11.18;100.00;100388.69;5072988;28;20036;-85
2023/12/24 10:52:22;;;;;;;13.45;7.30;;;;;;;11.19;100.00;100365.78;5055399;28;20381;-86
2023/12/24 10:54:48;;;;;;;15.32;7.53;;;;;;;11.28;100.00;100385.16;5073554;28;20025;-86
2023/12/24 10:57:41;;;;;;;10.45;6.72;;;;;;;11.33;100.00;100376.34;5073402;28;20036;-85
2023/12/24 11:00:14;;;;;;;13.70;6.00;;;;;;;11.34;100.00;100378.09;5072949;28;20489;-85
2023/12/24 11:02:44;;;;;;;7.88;4.53;;;;;;;11.34;100.00;100363.13;5055517;28;20060;-86
2023/12/24 11:05:10;;;;;;;10.70;4.68;;;;;;;11.28;100.00;100341.97;5054987;28;20024;-85
2023/12/24 11:07:46;;;;;;;5.65;3.72;;;;;;;11.41;100.00;100370.19;5055073;28;20382;-85
2023/12/24 11:13:36;;;;;;;6.15;3.03;;;;;;;11.44;100.00;100356.97;5073080;28;20039;-86
2023/12/24 11:19:30;;;;;;;4.70;2.42;;;;;;;11.43;100.00;100347.25;5071993;28;20036;-86
2023/12/24 11:22:09;;;;;;;7.72;2.60;;;;;;;11.37;100.00;100330.50;5054943;28;20036;-85
2023/12/24 11:24:41;;;;;;;3.58;2.30;;;;;;;11.45;100.00;100355.19;5073078;28;20033;-87
2023/12/24 11:27:08;;;;;;;4.85;2.45;;;;;;;11.47;100.00;100364.00;5073044;28;20484;-89
2023/12/24 11:29:49;;;;;;;5.75;2.40;;;;;;;11.46;100.00;100352.53;5072657;28;20063;-86